Time;durP1;ratioP1;P1;durP2;ratioP2;P2;SDS_P1;SDS_P2;PMS_P1;PMS_P2;Temp;Humidity;BMP_temperature;BMP_pressure;BME280_temperature;BME280_humidity;BME280_pressure;Samples;Min_cycle;Max_cycle;Signal;HPM_P1;HPM_P2
2022/12/04 00:01:25;;;;;;;;;;;;;;;;;;5066330;28;20452;-56
2022/12/04 00:03:51;;;;;;;;;;;;;;;;;;5067772;28;19920;-55
2022/12/04 00:06:16;;;;;;;;;;;;;;;;;;5064123;28;20219;-57
2022/12/04 00:08:42;;;;;;;;;;;;;;;;;;5067816;28;19924;-56
2022/12/04 00:11:08;;;;;;;;;;;;;;;;;;5067044;28;20375;-56
2022/12/04 00:13:34;;;;;;;;;;;;;;;;;;5071197;28;19927;-56
2022/12/04 00:16:00;;;;;;;;;;;;;;;;;;5072321;28;19925;-56
2022/12/04 00:18:26;;;;;;;;;;;;;;;;;;5067658;28;20017;-57
2022/12/04 00:20:52;;;;;;;;;;;;;;;;;;5067896;28;20295;-57
2022/12/04 00:23:18;;;;;;;;;;;;;;;;;;5064158;28;20291;-57
2022/12/04 00:25:47;;;;;;;;;;;;;;;;;;5064209;28;19920;-56
2022/12/04 00:28:13;;;;;;;;;;;;;;;;;;5065399;28;19947;-57
2022/12/04 00:30:39;;;;;;;;;;;;;;;;;;5066151;28;19924;-56
2022/12/04 00:33:05;;;;;;;;;;;;;;;;;;5061854;28;19925;-56
2022/12/04 00:35:31;;;;;;;;;;;;;;;;;;5067256;28;20375;-57
2022/12/04 00:37:57;;;;;;;;;;;;;;;;;;5069070;28;19920;-56
2022/12/04 00:40:23;;;;;;;;;;;;;;;;;;5065773;28;19924;-57
2022/12/04 00:42:48;;;;;;;;;;;;;;;;;;5067049;28;20367;-56
2022/12/04 00:45:14;;;;;;;;;;;;;;;;;;5066580;28;19927;-56
2022/12/04 00:47:40;;;;;;;;;;;;;;;;;;5065941;28;20025;-56
2022/12/04 00:50:06;;;;;;;;;;;;;;;;;;5067034;28;20382;-57
2022/12/04 00:52:32;;;;;;;;;;;;;;;;;;5066235;28;19979;-57
2022/12/04 00:54:58;;;;;;;;;;;;;;;;;;5066839;28;20010;-57
2022/12/04 00:57:24;;;;;;;;;;;;;;;;;;5064940;28;19946;-57
2022/12/04 00:59:50;;;;;;;;;;;;;;;;;;5066515;28;19921;-56
2022/12/04 01:02:16;;;;;;;;;;;;;;;;;;5064794;28;19973;-56
2022/12/04 01:04:41;;;;;;;;;;;;;;;;;;5066134;28;19921;-57
2022/12/04 01:07:07;;;;;;;;;;;;;;;;;;5066317;28;20298;-57
2022/12/04 01:09:33;;;;;;;;;;;;;;;;;;5064911;28;19928;-56
2022/12/04 01:11:59;;;;;;;;;;;;;;;;;;5066227;28;19929;-56
2022/12/04 01:14:25;;;;;;;;;;;;;;;;;;5064926;28;19975;-56
2022/12/04 01:16:51;;;;;;;;;;;;;;;;;;5066385;28;19999;-56
2022/12/04 01:19:17;;;;;;;;;;;;;;;;;;5065560;28;19927;-57
2022/12/04 01:21:43;;;;;;;;;;;;;;;;;;5064962;28;20377;-56
2022/12/04 01:24:09;;;;;;;;;;;;;;;;;;5066607;28;19931;-54
2022/12/04 01:26:35;;;;;;;;;;;;;;;;;;5065954;28;19935;-56
2022/12/04 01:29:00;;;;;;;;;;;;;;;;;;5065790;28;19921;-57
2022/12/04 01:31:26;;;;;;;;;;;;;;;;;;5065949;28;19920;-56
2022/12/04 01:33:52;;;;;;;;;;;;;;;;;;5066151;28;19924;-59
2022/12/04 01:36:18;;;;;;;;;;;;;;;;;;5064436;28;19924;-57
2022/12/04 01:38:44;;;;;;;;;;;;;;;;;;5065995;28;19931;-57
2022/12/04 01:41:10;;;;;;;;;;;;;;;;;;5065865;28;19928;-57
2022/12/04 01:43:36;;;;;;;;;;;;;;;;;;5065167;28;20343;-57
2022/12/04 01:46:02;;;;;;;;;;;;;;;;;;5066211;28;19927;-57
2022/12/04 01:48:29;;;;;;;;;;;;;;;;;;5064995;28;19973;-56
2022/12/04 01:50:55;;;;;;;;;;;;;;;;;;5065361;28;19959;-56
2022/12/04 01:53:21;;;;;;;;;;;;;;;;;;5065266;28;20431;-57
2022/12/04 01:55:47;;;;;;;;;;;;;;;;;;5065791;28;20008;-57
2022/12/04 01:58:13;;;;;;;;;;;;;;;;;;5061080;28;19932;-57
2022/12/04 02:00:39;;;;;;;;;;;;;;;;;;5065622;28;19924;-57
2022/12/04 02:03:05;;;;;;;;;;;;;;;;;;5065756;28;19924;-57
2022/12/04 02:05:30;;;;;;;;;;;;;;;;;;5064124;28;19975;-56
2022/12/04 02:07:57;;;;;;;;;;;;;;;;;;5065898;28;19947;-56
2022/12/04 02:10:25;;;;;;;;;;;;;;;;;;5065135;28;19925;-57
2022/12/04 02:12:51;;;;;;;;;;;;;;;;;;5065061;28;19927;-57
2022/12/04 02:15:17;;;;;;;;;;;;;;;;;;5065075;28;19920;-57
2022/12/04 02:17:44;;;;;;;;;;;;;;;;;;5063497;28;19921;-56
2022/12/04 02:20:10;;;;;;;;;;;;;;;;;;5063921;28;19920;-56
2022/12/04 02:22:35;;;;;;;;;;;;;;;;;;5065512;28;19924;-57
2022/12/04 02:25:01;;;;;;;;;;;;;;;;;;5064584;28;19932;-57
2022/12/04 02:27:27;;;;;;;;;;;;;;;;;;5065174;28;19975;-56
2022/12/04 02:29:53;;;;;;;;;;;;;;;;;;5065777;28;19924;-57
2022/12/04 02:32:19;;;;;;;;;;;;;;;;;;5063865;28;20375;-56
2022/12/04 02:34:45;;;;;;;;;;;;;;;;;;5067180;28;19924;-57
2022/12/04 02:37:11;;;;;;;;;;;;;;;;;;5069153;28;19921;-56
2022/12/04 02:39:37;;;;;;;;;;;;;;;;;;5068279;28;19935;-57
2022/12/04 02:42:03;;;;;;;;;;;;;;;;;;5068722;28;19932;-56
2022/12/04 02:44:29;;;;;;;;;;;;;;;;;;5068268;28;19925;-56
2022/12/04 02:46:54;;;;;;;;;;;;;;;;;;5068726;28;19973;-57
2022/12/04 02:49:20;;;;;;;;;;;;;;;;;;5068572;28;20003;-56
2022/12/04 02:51:46;;;;;;;;;;;;;;;;;;5069286;28;19924;-57
2022/12/04 02:54:12;;;;;;;;;;;;;;;;;;5068126;28;19920;-57
2022/12/04 02:56:38;;;;;;;;;;;;;;;;;;5068587;28;19924;-56
2022/12/04 02:59:04;;;;;;;;;;;;;;;;;;5084884;28;19924;-57
2022/12/04 03:01:30;;;;;;;;;;;;;;;;;;5067586;28;20418;-57
2022/12/04 03:03:56;;;;;;;;;;;;;;;;;;5069165;28;19920;-57
2022/12/04 03:06:22;;;;;;;;;;;;;;;;;;5068224;28;19927;-57
2022/12/04 03:08:47;;;;;;;;;;;;;;;;;;5067728;28;20637;-56
2022/12/04 03:11:13;;;;;;;;;;;;;;;;;;5068408;28;20260;-57
2022/12/04 03:13:39;;;;;;;;;;;;;;;;;;5068161;28;19920;-57
2022/12/04 03:16:05;;;;;;;;;;;;;;;;;;5068151;28;19920;-56
2022/12/04 03:18:31;;;;;;;;;;;;;;;;;;5067845;28;20540;-57
2022/12/04 03:20:57;;;;;;;;;;;;;;;;;;5066139;28;19927;-56
2022/12/04 03:23:23;;;;;;;;;;;;;;;;;;5067930;28;19925;-57
2022/12/04 03:25:49;;;;;;;;;;;;;;;;;;5068289;28;19931;-56
2022/12/04 03:28:15;;;;;;;;;;;;;;;;;;5067241;28;19927;-57
2022/12/04 03:30:41;;;;;;;;;;;;;;;;;;5067592;28;19924;-57
2022/12/04 03:33:07;;;;;;;;;;;;;;;;;;5068875;28;19982;-57
2022/12/04 03:35:33;;;;;;;;;;;;;;;;;;5067183;28;20434;-56
2022/12/04 03:37:59;;;;;;;;;;;;;;;;;;5066496;28;20038;-57
2022/12/04 03:40:25;;;;;;;;;;;;;;;;;;5067846;28;19920;-57
2022/12/04 03:42:51;;;;;;;;;;;;;;;;;;5067502;28;20420;-57
2022/12/04 03:45:17;;;;;;;;;;;;;;;;;;5067413;28;19931;-57
2022/12/04 03:47:43;;;;;;;;;;;;;;;;;;5068191;28;19924;-57
2022/12/04 03:50:08;;;;;;;;;;;;;;;;;;5067208;28;19925;-57
2022/12/04 03:52:34;;;;;;;;;;;;;;;;;;5068021;28;19924;-57
2022/12/04 03:55:00;;;;;;;;;;;;;;;;;;5066134;28;19981;-56
2022/12/04 03:57:26;;;;;;;;;;;;;;;;;;5066712;28;19924;-56
2022/12/04 03:59:52;;;;;;;;;;;;;;;;;;5067771;28;19971;-57
2022/12/04 04:02:18;;;;;;;;;;;;;;;;;;5067487;28;19930;-57
2022/12/04 04:04:44;;;;;;;;;;;;;;;;;;5067053;28;19978;-56
2022/12/04 04:07:10;;;;;;;;;;;;;;;;;;5066959;28;20367;-56
2022/12/04 04:09:36;;;;;;;;;;;;;;;;;;5065898;28;19930;-56
2022/12/04 04:12:02;;;;;;;;;;;;;;;;;;5065604;28;19920;-57
2022/12/04 04:25:25;;;;;;;;;;;;;;;;;;5063476;28;20019;-57
2022/12/04 04:27:52;;;;;;;;;;;;;;;;;;5066773;28;20011;-57
2022/12/04 04:30:18;;;;;;;;;;;;;;;;;;5066974;28;19920;-57
2022/12/04 04:32:44;;;;;;;;;;;;;;;;;;5065861;28;19924;-57
2022/12/04 04:35:10;;;;;;;;;;;;;;;;;;5066286;28;20359;-56
2022/12/04 04:37:35;;;;;;;;;;;;;;;;;;5066415;28;20009;-57
2022/12/04 04:40:04;;;;;;;;;;;;;;;;;;5065899;28;19927;-57
2022/12/04 04:42:30;;;;;;;;;;;;;;;;;;5065784;28;19924;-57
2022/12/04 04:44:56;;;;;;;;;;;;;;;;;;5066979;28;20405;-57
2022/12/04 04:47:22;;;;;;;;;;;;;;;;;;5065024;28;19927;-57
2022/12/04 04:49:48;;;;;;;;;;;;;;;;;;5065823;28;19924;-56
2022/12/04 04:52:14;;;;;;;;;;;;;;;;;;5064495;28;19972;-57
2022/12/04 04:54:39;;;;;;;;;;;;;;;;;;5064743;28;20103;-57
2022/12/04 04:57:05;;;;;;;;;;;;;;;;;;5065791;28;19920;-57
2022/12/04 04:59:33;;;;;;;;;;;;;;;;;;5064737;28;19920;-56
2022/12/04 05:01:59;;;;;;;;;;;;;;;;;;5066193;28;20058;-57
2022/12/04 05:04:25;;;;;;;;;;;;;;;;;;5066098;28;20453;-56
2022/12/04 05:06:51;;;;;;;;;;;;;;;;;;5065483;28;19920;-57
2022/12/04 05:09:16;;;;;;;;;;;;;;;;;;5062104;28;19927;-57
2022/12/04 05:11:42;;;;;;;;;;;;;;;;;;5065412;28;20361;-57
2022/12/04 05:14:08;;;;;;;;;;;;;;;;;;5065544;28;19924;-56
2022/12/04 05:16:34;;;;;;;;;;;;;;;;;;5065593;28;20402;-56
2022/12/04 05:21:45;;;;;;;;;;;;;;;;;;5065800;28;19924;-56
2022/12/04 05:24:11;;;;;;;;;;;;;;;;;;5065448;28;19920;-56
2022/12/04 05:26:37;;;;;;;;;;;;;;;;;;5065890;28;19920;-57
2022/12/04 05:29:03;;;;;;;;;;;;;;;;;;5065055;28;20015;-56
2022/12/04 05:31:28;;;;;;;;;;;;;;;;;;5065311;28;19924;-56
2022/12/04 05:33:54;;;;;;;;;;;;;;;;;;5066221;28;20005;-56
2022/12/04 05:36:20;;;;;;;;;;;;;;;;;;5064653;28;19920;-56
2022/12/04 05:38:46;;;;;;;;;;;;;;;;;;5064951;28;20299;-57
2022/12/04 05:41:12;;;;;;;;;;;;;;;;;;5065348;28;19920;-57
2022/12/04 05:43:38;;;;;;;;;;;;;;;;;;5064604;28;19927;-57
2022/12/04 05:46:04;;;;;;;;;;;;;;;;;;5065756;28;20359;-57
2022/12/04 05:48:30;;;;;;;;;;;;;;;;;;5065207;28;20682;-57
2022/12/04 05:50:56;;;;;;;;;;;;;;;;;;5065153;28;19920;-56
2022/12/04 05:53:21;;;;;;;;;;;;;;;;;;5064247;28;19920;-57
2022/12/04 05:55:47;;;;;;;;;;;;;;;;;;5061864;28;20011;-57
2022/12/04 05:58:13;;;;;;;;;;;;;;;;;;5067418;28;20018;-57
2022/12/04 06:00:39;;;;;;;;;;;;;;;;;;5064753;28;19969;-57
2022/12/04 06:03:05;;;;;;;;;;;;;;;;;;5065319;28;19921;-57
2022/12/04 06:05:31;;;;;;;;;;;;;;;;;;5064614;28;20335;-57
2022/12/04 06:07:57;;;;;;;;;;;;;;;;;;5065293;28;20022;-56
2022/12/04 06:10:23;;;;;;;;;;;;;;;;;;5063909;28;19928;-57
2022/12/04 06:12:49;;;;;;;;;;;;;;;;;;5064677;28;20352;-57
2022/12/04 06:15:14;;;;;;;;;;;;;;;;;;5065072;28;19949;-56
2022/12/04 06:17:40;;;;;;;;;;;;;;;;;;5064429;28;19920;-56
2022/12/04 06:20:06;;;;;;;;;;;;;;;;;;5065943;28;19927;-57
2022/12/04 06:22:32;;;;;;;;;;;;;;;;;;5064560;28;19928;-57
2022/12/04 06:24:58;;;;;;;;;;;;;;;;;;5071929;28;19920;-57
2022/12/04 06:27:24;;;;;;;;;;;;;;;;;;5065362;28;19920;-57
2022/12/04 06:29:50;;;;;;;;;;;;;;;;;;5070653;28;20401;-56
2022/12/04 06:32:16;;;;;;;;;;;;;;;;;;5066503;28;19927;-57
2022/12/04 06:34:42;;;;;;;;;;;;;;;;;;5067719;28;19920;-57
2022/12/04 06:37:08;;;;;;;;;;;;;;;;;;5065505;28;20341;-56
2022/12/04 06:39:34;;;;;;;;;;;;;;;;;;5064051;28;19964;-57
2022/12/04 06:42:00;;;;;;;;;;;;;;;;;;5065380;28;19971;-57
2022/12/04 06:44:25;;;;;;;;;;;;;;;;;;5064765;28;20294;-57
2022/12/04 06:46:51;;;;;;;;;;;;;;;;;;5064741;28;19928;-57
2022/12/04 06:49:21;;;;;;;;;;;;;;;;;;5064740;28;19920;-57
2022/12/04 06:51:47;;;;;;;;;;;;;;;;;;5064676;28;20014;-56
2022/12/04 06:54:13;;;;;;;;;;;;;;;;;;5064056;28;20023;-57
2022/12/04 06:56:39;;;;;;;;;;;;;;;;;;5064717;28;20431;-56
2022/12/04 06:59:05;;;;;;;;;;;;;;;;;;5064435;28;20397;-57
2022/12/04 07:01:31;;;;;;;;;;;;;;;;;;5063668;28;20007;-57
2022/12/04 07:03:57;;;;;;;;;;;;;;;;;;5065059;28;19942;-57
2022/12/04 07:06:22;;;;;;;;;;;;;;;;;;5063860;28;19936;-57
2022/12/04 07:08:48;;;;;;;;;;;;;;;;;;5064666;28;19931;-57
2022/12/04 07:11:14;;;;;;;;;;;;;;;;;;5068655;28;20518;-56
2022/12/04 07:13:40;;;;;;;;;;;;;;;;;;5068256;28;20011;-56
2022/12/04 07:16:06;;;;;;;;;;;;;;;;;;5065265;28;20357;-57
2022/12/04 07:18:32;;;;;;;;;;;;;;;;;;5064029;28;19947;-57
2022/12/04 07:20:58;;;;;;;;;;;;;;;;;;5066225;28;19928;-57
2022/12/04 07:23:24;;;;;;;;;;;;;;;;;;5068211;28;20409;-57
2022/12/04 07:25:50;;;;;;;;;;;;;;;;;;5068163;28;19931;-57
2022/12/04 07:28:16;;;;;;;;;;;;;;;;;;5067152;28;19920;-57
2022/12/04 07:30:42;;;;;;;;;;;;;;;;;;5068028;28;19936;-56
2022/12/04 07:33:07;;;;;;;;;;;;;;;;;;5067977;28;20029;-57
2022/12/04 07:35:33;;;;;;;;;;;;;;;;;;5066172;28;20014;-57
2022/12/04 07:37:59;;;;;;;;;;;;;;;;;;5068052;28;19929;-57
2022/12/04 07:40:25;;;;;;;;;;;;;;;;;;5067340;28;19920;-57
2022/12/04 07:42:51;;;;;;;;;;;;;;;;;;5066821;28;19943;-56
2022/12/04 07:45:17;;;;;;;;;;;;;;;;;;5067731;28;19920;-57
2022/12/04 07:47:43;;;;;;;;;;;;;;;;;;5072972;28;20718;-57
2022/12/04 07:50:09;;;;;;;;;;;;;;;;;;5067023;28;20361;-57
2022/12/04 07:52:35;;;;;;;;;;;;;;;;;;5067462;28;19970;-56
2022/12/04 07:55:01;;;;;;;;;;;;;;;;;;5067755;28;19924;-57
2022/12/04 07:57:27;;;;;;;;;;;;;;;;;;5066792;28;20363;-57
2022/12/04 07:59:53;;;;;;;;;;;;;;;;;;5067821;28;19920;-56
2022/12/04 08:02:19;;;;;;;;;;;;;;;;;;5066531;28;19924;-57
2022/12/04 08:04:45;;;;;;;;;;;;;;;;;;5067333;28;20061;-57
2022/12/04 08:07:11;;;;;;;;;;;;;;;;;;5067142;28;20461;-57
2022/12/04 08:09:37;;;;;;;;;;;;;;;;;;5066396;28;20003;-57
2022/12/04 08:12:03;;;;;;;;;;;;;;;;;;5067261;28;19928;-56
2022/12/04 08:14:29;;;;;;;;;;;;;;;;;;5067052;28;20713;-56
2022/12/04 08:16:55;;;;;;;;;;;;;;;;;;5066334;28;19921;-56
2022/12/04 08:19:21;;;;;;;;;;;;;;;;;;5066901;28;19920;-57
2022/12/04 08:21:47;;;;;;;;;;;;;;;;;;5067489;28;19924;-57
2022/12/04 08:24:13;;;;;;;;;;;;;;;;;;5065315;28;20520;-57
2022/12/04 08:26:38;;;;;;;;;;;;;;;;;;5066522;28;19978;-56
2022/12/04 08:29:04;;;;;;;;;;;;;;;;;;5067342;28;19924;-56
2022/12/04 08:31:31;;;;;;;;;;;;;;;;;;5065452;28;20295;-56
2022/12/04 08:33:57;;;;;;;;;;;;;;;;;;5066245;28;19967;-56
2022/12/04 08:36:23;;;;;;;;;;;;;;;;;;5066413;28;20382;-56
2022/12/04 08:38:49;;;;;;;;;;;;;;;;;;5065659;28;19932;-56
2022/12/04 08:41:15;;;;;;;;;;;;;;;;;;5066333;28;19927;-57
2022/12/04 08:43:41;;;;;;;;;;;;;;;;;;5098904;28;19924;-56
2022/12/04 08:46:07;;;;;;;;;;;;;;;;;;5066367;28;19920;-57
2022/12/04 08:48:33;;;;;;;;;;;;;;;;;;5065751;28;20398;-56
2022/12/04 08:50:59;;;;;;;;;;;;;;;;;;5066636;28;20194;-56
2022/12/04 08:53:25;;;;;;;;;;;;;;;;;;5065294;28;20001;-56
2022/12/04 08:55:51;;;;;;;;;;;;;;;;;;5067556;28;19921;-56
2022/12/04 08:58:16;;;;;;;;;;;;;;;;;;5070031;28;19927;-56
2022/12/04 09:00:42;;;;;;;;;;;;;;;;;;5067030;28;20415;-56
2022/12/04 09:03:08;;;;;;;;;;;;;;;;;;5067387;28;19946;-56
2022/12/04 09:05:34;;;;;;;;;;;;;;;;;;5066328;28;20348;-56
2022/12/04 09:08:00;;;;;;;;;;;;;;;;;;5066624;28;19925;-57
2022/12/04 09:10:26;;;;;;;;;;;;;;;;;;5066423;28;20482;-57
2022/12/04 09:12:52;;;;;;;33.78;19.65;;;;;;;;;;5065569;28;20902;-56
2022/12/04 09:15:18;;;;;;;29.17;17.83;;;;;;;;;;5066145;28;20071;-56
2022/12/04 09:17:44;;;;;;;30.85;18.48;;;;;;;;;;5066157;28;20646;-57
2022/12/04 09:20:10;;;;;;;30.30;17.63;;;;;;;;;;5065371;28;20051;-57
2022/12/04 09:22:37;;;;;;;33.45;19.60;;;;;;;;;;5066338;28;20078;-56
2022/12/04 09:25:04;;;;;;;30.58;18.23;;;;;;;;;;5066272;28;20207;-57
2022/12/04 09:27:30;;;;;;;25.00;16.00;;;;;;;;;;5065072;28;20135;-56
2022/12/04 09:29:56;;;;;;;29.83;18.35;;;;;;;;;;5069322;28;20036;-57
2022/12/04 09:32:22;;;;;;;28.77;17.40;;;;;;;;;;5070379;28;20387;-56
2022/12/04 09:34:48;;;;;;;29.45;17.13;;;;;;;;;;5065678;28;20032;-56
2022/12/04 09:37:16;;;;;;;29.77;17.55;;;;;;;;;;5065991;28;20725;-52
2022/12/04 09:39:42;;;;;;;24.98;15.48;;;;;;;;;;5066187;28;20681;-57
2022/12/04 09:42:17;;;;;;;30.65;17.95;;;;;;;;;;5065857;28;20107;-56
2022/12/04 09:44:57;;;;;;;35.72;19.58;;;;;;;;;;5067493;28;20040;-56
2022/12/04 09:47:28;;;;;;;29.00;17.60;;;;;;;;;;5061683;28;20070;-56
2022/12/04 09:50:04;;;;;;;29.17;17.10;;;;;;;;;;5062609;28;20041;-56
2022/12/04 09:52:30;;;;;;;28.30;17.00;;;;;;;;;;5065245;28;20106;-57
2022/12/04 09:54:57;;;;;;;27.23;17.13;;;;;;;;;;5065256;28;20123;-56
2022/12/04 09:57:25;;;;;;;26.88;15.05;;;;;;;;;;5065537;28;20154;-57
2022/12/04 09:59:51;;;;;;;23.85;13.75;;;;;;;;;;5060562;28;20411;-56
2022/12/04 10:02:36;;;;;;;24.33;14.38;;;;;;;;;;5063952;28;20163;-56
2022/12/04 10:05:02;;;;;;;22.15;14.20;;;;;;;;;;5067788;28;20045;-56
2022/12/04 10:07:32;;;;;;;24.00;14.57;;;;;;;;;;5065641;28;20087;-60
2022/12/04 10:10:02;;;;;;;28.92;16.88;;;;;;;;;;5059639;28;20044;-59
2022/12/04 10:12:28;;;;;;;26.95;15.13;;;;;;;;;;5064691;28;20502;-59
2022/12/04 10:14:57;;;;;;;22.92;14.80;;;;;;;;;;5065598;28;20048;-59
2022/12/04 10:17:42;;;;;;;27.92;16.40;;;;;;;;;;5064744;28;20045;-60
2022/12/04 10:20:40;;;;;;;27.58;15.95;;;;;;;;;;5060289;28;20037;-60
2022/12/04 10:23:20;;;;;;;24.65;15.45;;;;;;;;;;5040332;28;20060;-60
2022/12/04 10:25:46;;;;;;;24.63;15.60;;;;;;;;;;5066223;28;20052;-60
2022/12/04 10:28:20;;;;;;;26.13;15.52;;;;;;;;;;5083423;28;20123;-60
2022/12/04 10:30:46;;;;;;;25.08;14.93;;;;;;;;;;5080681;28;20056;-60
2022/12/04 10:33:15;;;;;;;24.60;14.10;;;;;;;;;;5066667;28;20051;-59
2022/12/04 10:35:42;;;;;;;23.08;14.40;;;;;;;;;;5064115;28;20119;-59
2022/12/04 10:38:07;;;;;;;;;;;;;;;;;;5067810;28;20044;-59
2022/12/04 10:40:33;;;;;;;;;;;;;;;;;;5069688;28;19989;-59
2022/12/04 10:42:59;;;;;;;;;;;;;;;;;;5075075;28;20542;-60
2022/12/04 10:45:25;;;;;;;;;;;;;;;;;;5063208;28;19924;-60
2022/12/04 10:47:51;;;;;;;;;;;;;;;;;;5064340;28;19967;-60
2022/12/04 10:50:17;;;;;;;;;;;;;;;;;;5064222;28;20275;-60
2022/12/04 10:52:43;;;;;;;;;;;;;;;;;;5064174;28;20059;-60
2022/12/04 10:55:09;;;;;;;;;;;;;;;;;;5064806;28;19951;-60
2022/12/04 10:57:35;;;;;;;;;;;;;;;;;;5068514;28;19920;-61
2022/12/04 11:00:01;;;;;;;;;;;;;;;;;;5068754;28;19927;-61
2022/12/04 11:02:27;;;;;;;;;;;;;;;;;;5072927;28;19920;-60
2022/12/04 11:04:52;;;;;;;;;;;;;;;;;;5072008;28;19924;-60
2022/12/04 11:07:18;;;;;;;;;;;;;;;;;;5072415;28;19924;-61
2022/12/04 11:09:44;;;;;;;;;;;;;;;;;;5067779;28;19926;-60
2022/12/04 11:12:10;;;;;;;;;;;;;;;;;;5067352;28;20342;-60
2022/12/04 11:14:36;;;;;;;;;;;;;;;;;;5068388;28;19924;-60
2022/12/04 11:17:02;;;;;;;;;;;;;;;;;;5072798;28;19927;-60
2022/12/04 11:19:28;;;;;;;;;;;;;;;;;;5072164;28;20365;-60
2022/12/04 11:21:54;;;;;;;;;;;;;;;;;;5071800;28;20015;-59
2022/12/04 11:24:20;;;;;;;;;;;;;;;;;;5073133;28;19995;-58
2022/12/04 11:26:46;;;;;;;;;;;;;;;;;;5075293;28;20379;-59
2022/12/04 11:29:12;;;;;;;;;;;;;;;;;;5068238;28;19927;-59
2022/12/04 11:31:38;;;;;;;;;;;;;;;;;;5074240;28;19926;-58
2022/12/04 11:34:04;;;;;;;;;;;;;;;;;;5069299;28;20292;-60
2022/12/04 11:36:29;;;;;;;;;;;;;;;;;;5068812;28;19925;-59
2022/12/04 11:38:55;;;;;;;;;;;;;;;;;;5067125;28;19982;-59
2022/12/04 11:41:21;;;;;;;;;;;;;;;;;;5063720;28;19920;-59
2022/12/04 11:43:47;;;;;;;;;;;;;;;;;;5067934;28;20058;-59
2022/12/04 11:46:13;;;;;;;;;;;;;;;;;;5069539;28;20034;-59
2022/12/04 11:48:39;;;;;;;;;;;;;;;;;;5066521;28;19920;-58
2022/12/04 11:51:05;;;;;;;;;;;;;;;;;;5071242;28;19927;-59
2022/12/04 11:53:31;;;;;;;;;;;;;;;;;;5066126;28;20379;-59
2022/12/04 11:55:57;;;;;;;;;;;;;;;;;;5065665;28;19927;-59
2022/12/04 11:58:22;;;;;;;;;;;;;;;;;;5067282;28;19970;-59
2022/12/04 12:00:48;;;;;;;;;;;;;;;;;;5066013;28;19924;-58
2022/12/04 12:03:14;;;;;;;;;;;;;;;;;;5065777;28;19939;-59
2022/12/04 12:05:40;;;;;;;;;;;;;;;;;;5068422;28;19927;-59
2022/12/04 12:08:06;;;;;;;;;;;;;;;;;;5065026;28;19964;-59
2022/12/04 12:10:32;;;;;;;;;;;;;;;;;;5071900;28;20367;-59
2022/12/04 12:12:58;;;;;;;;;;;;;;;;;;5068994;28;20282;-60
2022/12/04 12:15:24;;;;;;;;;;;;;;;;;;5065738;28;19927;-60
2022/12/04 12:17:50;;;;;;;;;;;;;;;;;;5070200;28;19960;-60
2022/12/04 12:20:16;;;;;;;;;;;;;;;;;;5073409;28;19928;-60
2022/12/04 12:22:42;;;;;;;;;;;;;;;;;;5067831;28;20366;-60
2022/12/04 12:25:08;;;;;;;;;;;;;;;;;;5067517;28;20073;-60
2022/12/04 12:27:34;;;;;;;;;;;;;;;;;;5069567;28;20286;-60
2022/12/04 12:29:59;;;;;;;;;;;;;;;;;;5066898;28;19973;-60
2022/12/04 12:32:25;;;;;;;;;;;;;;;;;;5067246;28;19920;-60
2022/12/04 12:34:51;;;;;;;;;;;;;;;;;;5077496;28;20283;-60
2022/12/04 12:37:17;;;;;;;;;;;;;;;;;;5071268;28;19927;-60
2022/12/04 12:39:43;;;;;;;;;;;;;;;;;;5067066;28;19927;-60
2022/12/04 12:42:09;;;;;;;;;;;;;;;;;;5068317;28;20432;-60
2022/12/04 12:44:35;;;;;;;;;;;;;;;;;;5079162;28;20010;-60
2022/12/04 12:47:01;;;;;;;;;;;;;;;;;;5067749;28;19924;-60
2022/12/04 12:49:28;;;;;;;;;;;;;;;;;;5066697;28;19928;-60
2022/12/04 12:51:54;;;;;;;;;;;;;;;;;;5064084;28;20031;-60
2022/12/04 12:54:20;;;;;;;;;;;;;;;;;;5064540;28;20003;-60
2022/12/04 12:56:46;;;;;;;;;;;;;;;;;;5084896;28;19927;-60
2022/12/04 12:59:12;;;;;;;;;;;;;;;;;;5068213;28;20409;-60
2022/12/04 13:01:38;;;;;;;;;;;;;;;;;;5065901;28;20003;-60
2022/12/04 13:04:04;;;;;;;;;;;;;;;;;;5067955;28;20081;-60
2022/12/04 13:06:30;;;;;;;;;;;;;;;;;;5067668;28;19932;-60
2022/12/04 13:08:56;;;;;;;;;;;;;;;;;;5066863;28;19920;-60
2022/12/04 13:11:22;;;;;;;;;;;;;;;;;;5069682;28;20326;-60
2022/12/04 13:13:48;;;;;;;;;;;;;;;;;;5065465;28;20021;-60
2022/12/04 13:16:13;;;;;;;;;;;;;;;;;;5065585;28;19924;-60
2022/12/04 13:18:39;;;;;;;;;;;;;;;;;;5065405;28;20366;-60
2022/12/04 13:21:05;;;;;;;;;;;;;;;;;;5065274;28;19931;-59
2022/12/04 13:23:31;;;;;;;;;;;;;;;;;;5067850;28;19929;-60
2022/12/04 13:25:57;;;;;;;;;;;;;;;;;;5062894;28;20414;-60
2022/12/04 13:28:23;;;;;;;;;;;;;;;;;;5065698;28;19928;-60
2022/12/04 13:30:49;;;;;;;;;;;;;;;;;;5065977;28;19924;-60
2022/12/04 13:33:15;;;;;;;;;;;;;;;;;;5069555;28;20306;-60
2022/12/04 13:35:41;;;;;;;;;;;;;;;;;;5070041;28;19943;-60
2022/12/04 13:38:07;;;;;;;;;;;;;;;;;;5068188;28;19965;-60
2022/12/04 13:40:33;;;;;;;;;;;;;;;;;;5065036;28;19920;-60
2022/12/04 13:42:58;;;;;;;;;;;;;;;;;;5075060;28;19920;-60
2022/12/04 13:45:24;;;;;;;;;;;;;;;;;;5071357;28;19928;-60
2022/12/04 13:47:50;;;;;;;;;;;;;;;;;;5065856;28;20014;-60
2022/12/04 13:50:16;;;;;;;;;;;;;;;;;;5067833;28;20382;-60
2022/12/04 13:52:42;;;;;;;;;;;;;;;;;;5065126;28;19970;-60
2022/12/04 13:55:08;;;;;;;;;;;;;;;;;;5063723;28;19921;-60
2022/12/04 13:57:34;;;;;;;;;;;;;;;;;;5064799;28;19924;-60
2022/12/04 14:00:00;;;;;;;;;;;;;;;;;;5063309;28;19928;-60
2022/12/04 14:02:26;;;;;;;;;;;;;;;;;;5066073;28;19924;-60
2022/12/04 14:04:52;;;;;;;;;;;;;;;;;;5064575;28;19920;-60
2022/12/04 14:07:18;;;;;;;;;;;;;;;;;;5063654;28;19921;-60
2022/12/04 14:09:44;;;;;;;;;;;;;;;;;;5062826;28;19936;-60
2022/12/04 14:12:11;;;;;;;;;;;;;;;;;;5064312;28;20290;-60
2022/12/04 14:14:37;;;;;;;;;;;;;;;;;;5064230;28;20295;-60
2022/12/04 14:17:03;;;;;;;;;;;;;;;;;;5063724;28;19924;-60
2022/12/04 14:19:29;;;;;;;;;;;;;;;;;;5064654;28;19986;-60
2022/12/04 14:21:55;;;;;;;;;;;;;;;;;;5067947;28;19924;-60
2022/12/04 14:24:21;;;;;;;;;;;;;;;;;;5063912;28;19942;-60
2022/12/04 14:26:47;;;;;;;;;;;;;;;;;;5064125;28;19921;-60
2022/12/04 14:29:13;;;;;;;;;;;;;;;;;;5064356;28;19928;-60
2022/12/04 14:31:39;;;;;;;;;;;;;;;;;;5069531;28;20021;-60
2022/12/04 14:34:05;;;;;;;;;;;;;;;;;;5066935;28;19920;-60
2022/12/04 14:36:31;;;;;;;;;;;;;;;;;;5071300;28;20295;-60
2022/12/04 14:38:57;;;;;;;;;;;;;;;;;;5068957;28;19931;-60
2022/12/04 14:41:22;;;;;;;;;;;;;;;;;;5067081;28;20337;-60
2022/12/04 14:43:49;;;;;;;;;;;;;;;;;;5066557;28;19928;-60
2022/12/04 14:46:15;;;;;;;;;;;;;;;;;;5068526;28;20375;-60
2022/12/04 14:48:40;;;;;;;;;;;;;;;;;;5068601;28;19920;-60
2022/12/04 14:51:06;;;;;;;;;;;;;;;;;;5068136;28;19921;-60
2022/12/04 14:53:33;;;;;;;;;;;;;;;;;;5067589;28;20311;-60
2022/12/04 14:55:59;;;;;;;;;;;;;;;;;;5070718;28;20436;-60
2022/12/04 14:58:28;;;;;;;;;;;;;;;;;;5076204;28;19920;-60
2022/12/04 15:00:54;;;;;;;;;;;;;;;;;;5068442;28;19920;-60
2022/12/04 15:03:20;;;;;;;;;;;;;;;;;;5067316;28;19994;-60
2022/12/04 15:05:46;;;;;;;;;;;;;;;;;;5066116;28;19921;-60
2022/12/04 15:08:12;;;;;;;;;;;;;;;;;;5061754;28;19920;-60
2022/12/04 15:13:22;;;;;;;;;;;;;;;;;;5062650;28;19920;-60
2022/12/04 15:15:48;;;;;;;;;;;;;;;;;;5065663;28;20252;-60
2022/12/04 15:18:14;;;;;;;;;;;;;;;;;;5067477;28;19970;-60
2022/12/04 15:20:40;;;;;;;;;;;;;;;;;;5069366;28;19981;-60
2022/12/04 15:23:06;;;;;;;;;;;;;;;;;;5067312;28;19924;-60
2022/12/04 15:25:32;;;;;;;;;;;;;;;;;;5066043;28;20425;-60
2022/12/04 15:27:57;;;;;;;;;;;;;;;;;;5068179;28;19920;-61
2022/12/04 15:30:23;;;;;;;;;;;;;;;;;;5067658;28;20159;-60
2022/12/04 15:32:49;;;;;;;;;;;;;;;;;;5066392;28;20315;-60
2022/12/04 15:35:15;;;;;;;;;;;;;;;;;;5070215;28;19920;-60
2022/12/04 15:37:41;;;;;;;;;;;;;;;;;;5067266;28;19981;-60
2022/12/04 15:40:07;;;;;;;;;;;;;;;;;;5082696;28;19921;-60
2022/12/04 15:42:48;;;;;;;;;;;;;;;;;;5071158;28;20370;-60
2022/12/04 15:45:14;;;;;;;;;;;;;;;;;;5065400;28;19924;-60
2022/12/04 15:47:40;;;;;;;;;;;;;;;;;;5071022;28;19981;-60
2022/12/04 15:50:06;;;;;;;;;;;;;;;;;;5067508;28;19921;-60
2022/12/04 15:52:32;;;;;;;;;;;;;;;;;;5067279;28;19924;-60
2022/12/04 15:54:58;;;;;;;;;;;;;;;;;;5099215;28;20426;-60
2022/12/04 15:57:24;;;;;;;;;;;;;;;;;;5070488;28;20176;-60
2022/12/04 15:59:49;;;;;;;;;;;;;;;;;;5069637;28;19943;-60
2022/12/04 16:02:15;;;;;;;;;;;;;;;;;;5065986;28;19935;-60
2022/12/04 16:04:41;;;;;;;;;;;;;;;;;;5066882;28;19964;-60
2022/12/04 16:07:07;;;;;;;;;;;;;;;;;;5070058;28;19942;-58
2022/12/04 16:09:33;;;;;;;;;;;;;;;;;;5067795;28;20026;-58
2022/12/04 16:12:13;;;;;;;20.15;12.32;;;;;;;;;;5066530;28;20295;-58
2022/12/04 16:14:39;;;;;;;;;;;;;;;;;;5065879;28;20394;-58
2022/12/04 16:17:05;;;;;;;;;;;;;;;;;;5067004;28;20011;-58
2022/12/04 16:19:31;;;;;;;;;;;;;;;;;;5067291;28;19965;-58
2022/12/04 16:21:57;;;;;;;26.85;16.80;;;;;;;;;;5064964;28;20472;-58
2022/12/04 16:24:24;;;;;;;24.48;15.20;;;;;;;;;;5066269;28;20040;-59
2022/12/04 16:26:51;;;;;;;19.88;13.13;;;;;;;;;;5066887;28;20051;-58
2022/12/04 16:29:17;;;;;;;22.25;13.50;;;;;;;;;;5064213;28;20055;-58
2022/12/04 16:31:43;;;;;;;24.05;15.00;;;;;;;;;;5066425;28;20185;-58
2022/12/04 16:34:13;;;;;;;22.67;13.75;;;;;;;;;;5066425;28;20139;-58
2022/12/04 16:36:40;;;;;;;25.33;15.23;;;;;;;;;;5069606;28;20040;-58